Time,TemperatureF,DewpointF,PressureIn,WindDirection,WindDirectionDegrees,WindSpeedMPH,WindSpeedGustMPH,Humidity,HourlyPrecipIn,Conditions,Clouds,dailyrainin,SolarRadiationWatts/m^2,SoftwareType,DateUTC
2013-07-20 00:00:00,49.7,-99.9,20.00,NNW,337,4.0,4.0,255,0.00,,,0.00,0,Wunderground v.1.15,2013-07-20 07:00:00,
2013-07-20 00:10:00,49.9,-99.9,20.00,NW,323,3.0,3.0,255,0.00,,,0.00,0,Wunderground v.1.15,2013-07-20 07:10:00,
2013-07-20 00:20:00,49.6,-99.9,20.00,NW,323,2.0,2.0,255,0.00,,,0.00,0,Wunderground v.1.15,2013-07-20 07:20:00,
2013-07-20 00:30:00,49.2,-99.9,20.00,NW,324,5.0,5.0,255,0.00,,,0.00,0,Wunderground v.1.15,2013-07-20 07:30:00,
2013-07-20 00:40:00,48.9,-99.9,20.00,NNW,334,3.0,3.0,255,0.00,,,0.00,0,Wunderground v.1.15,2013-07-20 07:40:00,
2013-07-20 00:50:00,49.2,-99.9,20.00,NNW,339,4.0,4.0,255,0.00,,,0.00,0,Wunderground v.1.15,2013-07-20 07:50:00,
2013-07-20 01:00:00,49.3,-99.9,20.00,NNW,334,6.0,6.0,255,0.00,,,0.00,0,Wunderground v.1.15,2013-07-20 08:00:00,
2013-07-20 01:10:00,49.8,-99.9,20.00,NW,318,7.0,7.0,255,0.00,,,0.00,0,Wunderground v.1.15,2013-07-20 08:10:00,
2013-07-20 01:20:00,50.2,-99.9,20.00,NW,310,3.0,3.0,255,0.00,,,0.00,0,Wunderground v.1.15,2013-07-20 08:20:00,
2013-07-20 01:30:00,50.1,-99.9,20.00,WNW,296,9.0,9.0,255,0.00,,,0.00,0,Wunderground v.1.15,2013-07-20 08:30:00,
2013-07-20 01:40:00,50.3,-99.9,20.00,NW,312,9.0,9.0,255,0.00,,,0.00,0,Wunderground v.1.15,2013-07-20 08:40:00,
2013-07-20 01:50:00,50.0,-99.9,20.00,NW,315,6.0,6.0,255,0.00,,,0.00,0,Wunderground v.1.15,2013-07-20 08:50:00,
2013-07-20 02:00:00,50.0,-99.9,20.00,WNW,295,6.0,6.0,255,0.00,,,0.00,0,Wunderground v.1.15,2013-07-20 09:00:00,
2013-07-20 02:10:00,49.8,-99.9,20.00,WNW,301,5.0,5.0,255,0.00,,,0.00,0,Wunderground v.1.15,2013-07-20 09:10:00,
2013-07-20 02:20:00,49.6,-99.9,20.00,WNW,301,2.0,2.0,255,0.00,,,0.00,0,Wunderground v.1.15,2013-07-20 09:20:00,
2013-07-20 02:30:00,49.2,-99.9,20.00,WNW,301,3.0,3.0,255,0.00,,,0.00,0,Wunderground v.1.15,2013-07-20 09:30:00,
2013-07-20 02:40:00,49.0,-99.9,20.00,WNW,301,0.0,0.0,255,0.00,,,0.00,0,Wunderground v.1.15,2013-07-20 09:40:00,
2013-07-20 02:50:00,48.7,-99.9,20.00,WNW,301,2.0,2.0,255,0.00,,,0.00,0,Wunderground v.1.15,2013-07-20 09:50:00,
2013-07-20 03:00:00,48.6,-99.9,20.00,WNW,301,3.0,3.0,255,0.00,,,0.00,0,Wunderground v.1.15,2013-07-20 10:00:00,
2013-07-20 03:10:00,48.4,-99.9,20.00,WNW,303,2.0,2.0,255,0.00,,,0.00,0,Wunderground v.1.15,2013-07-20 10:10:00,
2013-07-20 03:20:00,48.4,-99.9,20.00,NW,306,3.0,3.0,255,0.00,,,0.00,0,Wunderground v.1.15,2013-07-20 10:20:00,
2013-07-20 03:25:00,48.2,-99.9,20.00,NW,306,2.0,3.0,255,0.00,,,0.00,0,Wunderground v.1.15,2013-07-20 10:25:00,
2013-07-20 03:35:00,48.4,-99.9,20.00,NW,312,2.0,7.0,255,0.00,,,0.00,0,Wunderground v.1.15,2013-07-20 10:35:00,
2013-07-20 03:45:00,48.3,-99.9,20.00,NW,312,3.0,3.0,255,0.00,,,0.00,0,Wunderground v.1.15,2013-07-20 10:45:00,
2013-07-20 03:50:00,48.4,-99.9,20.00,NNW,331,5.0,5.0,255,0.00,,,0.00,0,Wunderground v.1.15,2013-07-20 10:50:00,
2013-07-20 04:00:00,48.8,-99.9,20.00,NW,315,3.0,3.0,255,0.00,,,0.00,0,Wunderground v.1.15,2013-07-20 11:00:00,
2013-07-20 04:10:00,48.9,-99.9,20.00,NW,312,6.0,6.0,255,0.00,,,0.00,0,Wunderground v.1.15,2013-07-20 11:10:00,
2013-07-20 04:20:00,49.4,-99.9,20.00,NW,304,3.0,3.0,255,0.00,,,0.00,0,Wunderground v.1.15,2013-07-20 11:20:00,
2013-07-20 04:30:00,48.9,-99.9,20.00,NW,306,6.0,6.0,255,0.00,,,0.00,0,Wunderground v.1.15,2013-07-20 11:30:00,
2013-07-20 04:40:00,49.3,-99.9,20.00,NW,318,1.0,1.0,255,0.00,,,0.00,0,Wunderground v.1.15,2013-07-20 11:40:00,
2013-07-20 04:45:00,49.2,-99.9,20.00,NW,324,5.0,5.0,255,0.00,,,0.00,0,Wunderground v.1.15,2013-07-20 11:45:00,
2013-07-20 04:55:00,49.3,-99.9,20.00,NW,314,4.0,4.0,255,0.00,,,0.00,0,Wunderground v.1.15,2013-07-20 11:55:00,
2013-07-20 05:00:00,49.6,-99.9,20.00,NW,314,2.0,2.0,255,0.00,,,0.00,0,Wunderground v.1.15,2013-07-20 12:00:00,
2013-07-20 05:10:00,49.6,-99.9,20.00,NW,314,4.0,4.0,255,0.00,,,0.00,0,Wunderground v.1.15,2013-07-20 12:10:00,
2013-07-20 05:20:00,49.6,-99.9,20.00,NW,314,5.0,5.0,255,0.00,,,0.00,0,Wunderground v.1.15,2013-07-20 12:20:00,
2013-07-20 05:30:00,49.8,-99.9,20.00,NW,314,4.0,4.0,255,0.00,,,0.00,0,Wunderground v.1.15,2013-07-20 12:30:00,
2013-07-20 05:40:00,49.5,-99.9,20.00,NW,315,2.0,2.0,255,0.00,,,0.00,0,Wunderground v.1.15,2013-07-20 12:40:00,
2013-07-20 05:50:00,49.4,-99.9,20.00,NW,315,3.0,3.0,255,0.00,,,0.00,0,Wunderground v.1.15,2013-07-20 12:50:00,
2013-07-20 06:00:00,49.7,-99.9,20.00,NW,316,3.0,3.0,255,0.00,,,0.00,0,Wunderground v.1.15,2013-07-20 13:00:00,
2013-07-20 06:10:00,48.4,-99.9,20.00,NW,317,3.0,3.0,255,0.00,,,0.00,0,Wunderground v.1.15,2013-07-20 13:10:00,
2013-07-20 06:20:00,48.9,-99.9,20.00,NW,318,2.0,2.0,255,0.00,,,0.00,0,Wunderground v.1.15,2013-07-20 13:20:00,
2013-07-20 06:30:00,49.0,-99.9,20.00,North,357,3.0,3.0,255,0.00,,,0.00,0,Wunderground v.1.15,2013-07-20 13:30:00,
2013-07-20 06:40:00,49.1,-99.9,20.00,North,357,0.0,0.0,255,0.00,,,0.00,0,Wunderground v.1.15,2013-07-20 13:40:00,
2013-07-20 06:50:00,49.7,-99.9,20.00,North,355,3.0,3.0,255,0.00,,,0.00,0,Wunderground v.1.15,2013-07-20 13:50:00,
2013-07-20 07:00:00,49.5,-99.9,20.00,North,354,2.0,2.0,255,0.00,,,0.00,0,Wunderground v.1.15,2013-07-20 14:00:00,
2013-07-20 07:10:00,50.6,-99.9,20.00,NNW,348,0.0,0.0,255,0.00,,,0.00,0,Wunderground v.1.15,2013-07-20 14:10:00,
2013-07-20 07:15:00,50.7,-99.9,20.00,NNW,348,2.0,2.0,255,0.00,,,0.00,0,Wunderground v.1.15,2013-07-20 14:15:00,
2013-07-20 07:25:00,50.5,-99.9,20.00,NNW,348,0.0,0.0,255,0.00,,,0.00,0,Wunderground v.1.15,2013-07-20 14:25:00,
2013-07-20 07:35:00,51.0,-99.9,20.00,NNW,348,0.0,0.0,255,0.00,,,0.00,0,Wunderground v.1.15,2013-07-20 14:35:00,
2013-07-20 07:45:00,50.7,-99.9,20.00,NNW,348,0.0,0.0,255,0.00,,,0.00,0,Wunderground v.1.15,2013-07-20 14:45:00,
2013-07-20 07:55:00,50.2,-99.9,20.00,North,357,0.0,2.0,255,0.00,,,0.00,0,Wunderground v.1.15,2013-07-20 14:55:00,
2013-07-20 08:00:00,50.0,-99.9,20.00,North,357,0.0,0.0,255,0.00,,,0.00,0,Wunderground v.1.15,2013-07-20 15:00:00,
2013-07-20 08:10:00,50.7,-99.9,20.00,East,84,4.0,4.0,255,0.00,,,0.00,0,Wunderground v.1.15,2013-07-20 15:10:00,
2013-07-20 08:20:00,50.2,-99.9,20.00,ESE,104,1.0,1.0,255,0.00,,,0.00,0,Wunderground v.1.15,2013-07-20 15:20:00,
2013-07-20 08:30:00,50.8,-99.9,20.00,ESE,104,0.0,0.0,255,0.00,,,0.00,0,Wunderground v.1.15,2013-07-20 15:30:00,
2013-07-20 08:40:00,50.7,-99.9,20.00,ESE,104,2.0,2.0,255,0.00,,,0.00,0,Wunderground v.1.15,2013-07-20 15:40:00,
2013-07-20 08:50:00,51.6,-99.9,20.00,ESE,104,0.0,0.0,255,0.00,,,0.00,0,Wunderground v.1.15,2013-07-20 15:50:00,
2013-07-20 09:00:00,50.9,-99.9,20.00,ESE,104,2.0,2.0,255,0.00,,,0.00,0,Wunderground v.1.15,2013-07-20 16:00:00,
2013-07-20 09:10:00,50.8,-99.9,20.00,ESE,104,3.0,3.0,255,0.00,,,0.00,0,Wunderground v.1.15,2013-07-20 16:10:00,
2013-07-20 09:15:00,51.4,-99.9,20.00,ESE,104,2.0,3.0,255,0.00,,,0.00,0,Wunderground v.1.15,2013-07-20 16:15:00,
2013-07-20 09:25:00,51.8,-99.9,20.00,ESE,104,2.0,3.0,255,0.00,,,0.00,0,Wunderground v.1.15,2013-07-20 16:25:00,
2013-07-20 09:30:00,52.0,-99.9,20.00,ESE,105,0.0,0.0,255,0.00,,,0.00,0,Wunderground v.1.15,2013-07-20 16:30:00,
2013-07-20 09:40:00,52.9,-99.9,20.00,ESE,104,0.0,0.0,255,0.00,,,0.00,0,Wunderground v.1.15,2013-07-20 16:40:00,
2013-07-20 09:50:00,55.0,-99.9,20.00,ESE,105,0.0,0.0,255,0.00,,,0.00,0,Wunderground v.1.15,2013-07-20 16:50:00,
2013-07-20 10:00:00,52.6,-99.9,20.00,ESE,104,2.0,2.0,255,0.00,,,0.00,0,Wunderground v.1.15,2013-07-20 17:00:00,
2013-07-20 10:10:00,53.2,-99.9,20.00,ESE,102,2.0,2.0,255,0.00,,,0.00,0,Wunderground v.1.15,2013-07-20 17:10:00,
2013-07-20 10:20:00,57.8,-99.9,20.00,ESE,102,0.0,0.0,255,0.00,,,0.00,0,Wunderground v.1.15,2013-07-20 17:20:00,
2013-07-20 10:25:00,56.5,-99.9,20.00,ESE,102,0.0,0.0,255,0.00,,,0.00,0,Wunderground v.1.15,2013-07-20 17:25:00,
2013-07-20 10:35:00,55.3,-99.9,20.00,East,101,0.0,1.0,255,0.00,,,0.00,0,Wunderground v.1.15,2013-07-20 17:35:00,
2013-07-20 10:45:00,57.0,-99.9,20.00,East,101,0.0,0.0,255,0.00,,,0.00,0,Wunderground v.1.15,2013-07-20 17:45:00,
2013-07-20 10:50:00,58.0,-99.9,20.00,East,101,0.0,0.0,255,0.00,,,0.00,0,Wunderground v.1.15,2013-07-20 17:50:00,
2013-07-20 11:00:00,59.3,-99.9,20.00,East,99,0.0,0.0,255,0.00,,,0.00,0,Wunderground v.1.15,2013-07-20 18:00:00,
2013-07-20 11:10:00,60.9,-99.9,20.00,WSW,257,3.0,3.0,255,0.00,,,0.00,0,Wunderground v.1.15,2013-07-20 18:10:00,
2013-07-20 11:20:00,62.5,-99.9,20.00,WSW,253,1.0,1.0,255,0.00,,,0.00,0,Wunderground v.1.15,2013-07-20 18:20:00,
2013-07-20 11:25:00,64.6,-99.9,20.00,WSW,253,3.0,3.0,255,0.00,,,0.00,0,Wunderground v.1.15,2013-07-20 18:25:00,
2013-07-20 11:35:00,62.4,-99.9,20.00,WSW,256,1.0,1.0,255,0.00,,,0.00,0,Wunderground v.1.15,2013-07-20 18:35:00,
2013-07-20 11:45:00,60.8,-99.9,20.00,WSW,253,1.0,1.0,255,0.00,,,0.00,0,Wunderground v.1.15,2013-07-20 18:45:00,
2013-07-20 11:55:00,60.8,-99.9,20.00,SSW,205,1.0,1.0,255,0.00,,,0.00,0,Wunderground v.1.15,2013-07-20 18:55:00,
2013-07-20 12:00:00,62.2,-99.9,20.00,SW,218,1.0,1.0,255,0.00,,,0.00,0,Wunderground v.1.15,2013-07-20 19:00:00,
2013-07-20 12:10:00,62.6,-99.9,20.00,West,274,3.0,3.0,255,0.00,,,0.00,0,Wunderground v.1.15,2013-07-20 19:10:00,
2013-07-20 12:15:00,65.4,-99.9,20.00,West,274,4.0,4.0,255,0.00,,,0.00,0,Wunderground v.1.15,2013-07-20 19:15:00,
2013-07-20 12:20:00,63.5,-99.9,20.00,WSW,258,2.0,2.0,255,0.00,,,0.00,0,Wunderground v.1.15,2013-07-20 19:20:00,
2013-07-20 12:30:00,64.2,-99.9,20.00,WSW,253,5.0,5.0,255,0.00,,,0.00,0,Wunderground v.1.15,2013-07-20 19:30:00,
2013-07-20 12:40:00,63.2,-99.9,20.00,SW,228,1.0,1.0,255,0.00,,,0.00,0,Wunderground v.1.15,2013-07-20 19:40:00,
2013-07-20 12:50:00,64.3,-99.9,20.00,SW,221,0.0,0.0,255,0.00,,,0.00,0,Wunderground v.1.15,2013-07-20 19:50:00,
2013-07-20 13:00:00,68.0,-99.9,20.00,WSW,250,5.0,5.0,255,0.00,,,0.00,0,Wunderground v.1.15,2013-07-20 20:00:00,
2013-07-20 13:10:00,68.3,-99.9,20.00,West,279,6.0,6.0,255,0.00,,,0.00,0,Wunderground v.1.15,2013-07-20 20:10:00,
2013-07-20 13:15:00,67.4,-99.9,20.00,WSW,250,3.0,6.0,255,0.00,,,0.00,0,Wunderground v.1.15,2013-07-20 20:15:00,
2013-07-20 13:25:00,69.2,-99.9,20.00,SW,234,4.0,4.0,255,0.00,,,0.00,0,Wunderground v.1.15,2013-07-20 20:25:00,
2013-07-20 13:35:00,68.6,-99.9,20.00,WSW,241,1.0,3.0,255,0.00,,,0.00,0,Wunderground v.1.15,2013-07-20 20:35:00,
2013-07-20 13:45:00,70.4,-99.9,20.00,WSW,240,2.0,8.0,255,0.00,,,0.00,0,Wunderground v.1.15,2013-07-20 20:45:00,
2013-07-20 13:55:00,71.7,-99.9,20.00,WSW,237,3.0,3.0,255,0.00,,,0.00,0,Wunderground v.1.15,2013-07-20 20:55:00,
2013-07-20 14:00:00,72.4,-99.9,20.00,SW,216,4.0,4.0,255,0.00,,,0.00,0,Wunderground v.1.15,2013-07-20 21:00:00,
2013-07-20 14:10:00,70.7,-99.9,20.00,WSW,251,2.0,2.0,255,0.00,,,0.00,0,Wunderground v.1.15,2013-07-20 21:10:00,
2013-07-20 14:20:00,68.0,-99.9,20.00,West,274,1.0,1.0,255,0.00,,,0.00,0,Wunderground v.1.15,2013-07-20 21:20:00,
2013-07-20 14:30:00,69.7,-99.9,20.00,SSW,193,0.0,0.0,255,0.00,,,0.00,0,Wunderground v.1.15,2013-07-20 21:30:00,
2013-07-20 14:40:00,68.3,-99.9,20.00,SW,226,2.0,2.0,255,0.00,,,0.00,0,Wunderground v.1.15,2013-07-20 21:40:00,
2013-07-20 14:50:00,69.9,-99.9,20.00,SSW,208,5.0,5.0,255,0.00,,,0.00,0,Wunderground v.1.15,2013-07-20 21:50:00,
2013-07-20 15:00:00,70.2,-99.9,20.00,WSW,243,1.0,1.0,255,0.00,,,0.00,0,Wunderground v.1.15,2013-07-20 22:00:00,
2013-07-20 15:10:00,68.5,-99.9,20.00,SSW,197,7.0,7.0,255,0.00,,,0.00,0,Wunderground v.1.15,2013-07-20 22:10:00,
2013-07-20 15:20:00,67.5,-99.9,20.00,SW,228,2.0,2.0,255,0.00,,,0.00,0,Wunderground v.1.15,2013-07-20 22:20:00,
2013-07-20 15:25:00,68.1,-99.9,20.00,WSW,247,3.0,3.0,255,0.00,,,0.00,0,Wunderground v.1.15,2013-07-20 22:25:00,
2013-07-20 15:35:00,65.9,-99.9,20.00,SSW,193,3.0,6.0,255,0.00,,,0.00,0,Wunderground v.1.15,2013-07-20 22:35:00,
2013-07-20 15:45:00,67.6,-99.9,20.00,SW,215,3.0,7.0,255,0.00,,,0.00,0,Wunderground v.1.15,2013-07-20 22:45:00,
2013-07-20 15:55:00,67.8,-99.9,20.00,WSW,242,4.0,4.0,255,0.00,,,0.00,0,Wunderground v.1.15,2013-07-20 22:55:00,
2013-07-20 16:00:00,68.5,-99.9,20.00,SW,236,2.0,2.0,255,0.00,,,0.00,0,Wunderground v.1.15,2013-07-20 23:00:00,
2013-07-20 16:10:00,67.3,-99.9,20.00,South,191,6.0,6.0,255,0.00,,,0.00,0,Wunderground v.1.15,2013-07-20 23:10:00,
2013-07-20 16:20:00,66.2,-99.9,20.00,SW,220,0.0,0.0,255,0.00,,,0.00,0,Wunderground v.1.15,2013-07-20 23:20:00,
2013-07-20 16:25:00,65.9,-99.9,20.00,SW,221,6.0,6.0,255,0.00,,,0.00,0,Wunderground v.1.15,2013-07-20 23:25:00,
2013-07-20 16:35:00,65.8,-99.9,20.00,SW,226,6.0,8.0,255,0.00,,,0.00,0,Wunderground v.1.15,2013-07-20 23:35:00,
2013-07-20 16:45:00,64.8,-99.9,20.00,SW,216,6.0,6.0,255,0.00,,,0.00,0,Wunderground v.1.15,2013-07-20 23:45:00,
2013-07-20 16:50:00,65.3,-99.9,20.00,SSW,206,6.0,6.0,255,0.00,,,0.00,0,Wunderground v.1.15,2013-07-20 23:50:00,
2013-07-20 17:00:00,65.2,-99.9,20.00,SW,220,4.0,4.0,255,0.00,,,0.00,0,Wunderground v.1.15,2013-07-21 00:00:00,
2013-07-20 17:10:00,65.6,-99.9,20.00,SSW,196,3.0,3.0,255,0.00,,,0.00,0,Wunderground v.1.15,2013-07-21 00:10:00,
2013-07-20 17:20:00,65.2,-99.9,20.00,SW,231,5.0,5.0,255,0.00,,,0.00,0,Wunderground v.1.15,2013-07-21 00:20:00,
2013-07-20 17:30:00,65.1,-99.9,20.00,SW,220,7.0,7.0,255,0.00,,,0.00,0,Wunderground v.1.15,2013-07-21 00:30:00,
2013-07-20 17:40:00,64.6,-99.9,20.00,SSW,208,9.0,9.0,255,0.00,,,0.00,0,Wunderground v.1.15,2013-07-21 00:40:00,
2013-07-20 17:45:00,64.8,-99.9,20.00,SSW,212,3.0,9.0,255,0.00,,,0.00,0,Wunderground v.1.15,2013-07-21 00:45:00,
2013-07-20 17:55:00,64.6,-99.9,20.00,SSW,211,7.0,8.0,255,0.00,,,0.00,0,Wunderground v.1.15,2013-07-21 00:55:00,
2013-07-20 18:00:00,65.4,-99.9,20.00,SW,224,3.0,3.0,255,0.00,,,0.00,0,Wunderground v.1.15,2013-07-21 01:00:00,
2013-07-20 18:10:00,65.0,-99.9,20.00,SSW,198,5.0,5.0,255,0.00,,,0.00,0,Wunderground v.1.15,2013-07-21 01:10:00,
2013-07-20 18:15:00,65.0,-99.9,20.00,SSW,210,9.0,9.0,255,0.00,,,0.00,0,Wunderground v.1.15,2013-07-21 01:15:00,
2013-07-20 18:25:00,63.9,-99.9,20.00,SW,222,4.0,5.0,255,0.00,,,0.00,0,Wunderground v.1.15,2013-07-21 01:25:00,
2013-07-20 18:30:00,64.3,-99.9,20.00,SW,222,4.0,4.0,255,0.00,,,0.00,0,Wunderground v.1.15,2013-07-21 01:30:00,
2013-07-20 18:40:00,63.9,-99.9,20.00,WSW,242,1.0,1.0,255,0.00,,,0.00,0,Wunderground v.1.15,2013-07-21 01:40:00,
2013-07-20 18:50:00,63.0,-99.9,20.00,SSW,204,5.0,5.0,255,0.00,,,0.00,0,Wunderground v.1.15,2013-07-21 01:50:00,
2013-07-20 19:00:00,62.3,-99.9,20.00,SSW,196,5.0,5.0,255,0.00,,,0.00,0,Wunderground v.1.15,2013-07-21 02:00:00,
2013-07-20 19:10:00,61.6,-99.9,20.00,SSW,212,5.0,5.0,255,0.00,,,0.00,0,Wunderground v.1.15,2013-07-21 02:10:00,
2013-07-20 19:15:00,62.0,-99.9,20.00,SW,218,8.0,8.0,255,0.00,,,0.00,0,Wunderground v.1.15,2013-07-21 02:15:00,
2013-07-20 19:25:00,61.5,-99.9,20.00,SSW,201,5.0,7.0,255,0.00,,,0.00,0,Wunderground v.1.15,2013-07-21 02:25:00,
2013-07-20 19:30:00,61.4,-99.9,20.00,South,190,5.0,5.0,255,0.00,,,0.00,0,Wunderground v.1.15,2013-07-21 02:30:00,
2013-07-20 19:35:00,62.0,-99.9,20.00,South,187,7.0,7.0,255,0.00,,,0.00,0,Wunderground v.1.15,2013-07-21 02:35:00,
2013-07-20 19:45:00,62.9,-99.9,20.00,SW,232,2.0,3.0,255,0.00,,,0.00,0,Wunderground v.1.15,2013-07-21 02:45:00,
2013-07-20 19:55:00,62.5,-99.9,20.00,SW,229,2.0,3.0,255,0.00,,,0.00,0,Wunderground v.1.15,2013-07-21 02:55:00,
2013-07-20 20:00:00,62.1,-99.9,20.00,SW,231,3.0,3.0,255,0.00,,,0.00,0,Wunderground v.1.15,2013-07-21 03:00:00,
2013-07-20 20:10:00,61.9,-99.9,20.00,WSW,244,5.0,5.0,255,0.00,,,0.00,0,Wunderground v.1.15,2013-07-21 03:10:00,
2013-07-20 20:15:00,61.3,-99.9,20.00,SW,227,4.0,5.0,255,0.00,,,0.00,0,Wunderground v.1.15,2013-07-21 03:15:00,
2013-07-20 20:30:00,60.2,-99.9,20.00,SW,235,4.0,4.0,255,0.00,,,0.00,0,Wunderground v.1.15,2013-07-21 03:30:00,
2013-07-20 20:40:00,60.0,-99.9,20.00,WSW,243,2.0,2.0,255,0.00,,,0.00,0,Wunderground v.1.15,2013-07-21 03:40:00,
2013-07-20 20:45:00,59.5,-99.9,20.00,WSW,237,4.0,4.0,255,0.00,,,0.00,0,Wunderground v.1.15,2013-07-21 03:45:00,
2013-07-20 20:55:00,58.7,-99.9,20.00,WSW,244,5.0,5.0,255,0.00,,,0.00,0,Wunderground v.1.15,2013-07-21 03:55:00,
2013-07-20 21:00:00,58.8,-99.9,20.00,WSW,253,4.0,4.0,255,0.00,,,0.00,0,Wunderground v.1.15,2013-07-21 04:00:00,
2013-07-20 21:05:00,58.5,-99.9,20.00,WSW,251,4.0,4.0,255,0.00,,,0.00,0,Wunderground v.1.15,2013-07-21 04:05:00,
2013-07-20 21:10:00,58.1,-99.9,20.00,WSW,251,4.0,4.0,255,0.00,,,0.00,0,Wunderground v.1.15,2013-07-21 04:10:00,
2013-07-20 21:20:00,57.9,-99.9,20.00,WSW,256,4.0,4.0,255,0.00,,,0.00,0,Wunderground v.1.15,2013-07-21 04:20:00,
2013-07-20 21:25:00,57.7,-99.9,20.00,West,275,5.0,5.0,255,0.00,,,0.00,0,Wunderground v.1.15,2013-07-21 04:25:00,
2013-07-20 21:35:00,55.8,-99.9,20.00,NNW,340,1.0,4.0,255,0.00,,,0.00,0,Wunderground v.1.15,2013-07-21 04:35:00,
2013-07-20 21:40:00,55.5,-99.9,20.00,North,350,4.0,4.0,255,0.00,,,0.00,0,Wunderground v.1.15,2013-07-21 04:40:00,
2013-07-20 21:50:00,55.1,-99.9,20.00,North,350,3.0,3.0,255,0.00,,,0.00,0,Wunderground v.1.15,2013-07-21 04:50:00,
2013-07-20 21:55:00,54.9,-99.9,20.00,North,350,4.0,4.0,255,0.00,,,0.00,0,Wunderground v.1.15,2013-07-21 04:55:00,
2013-07-20 22:00:00,54.5,-99.9,20.00,North,350,4.0,4.0,255,0.00,,,0.00,0,Wunderground v.1.15,2013-07-21 05:00:00,
2013-07-20 22:10:00,54.3,-99.9,20.00,North,350,3.0,3.0,255,0.00,,,0.00,0,Wunderground v.1.15,2013-07-21 05:10:00,
2013-07-20 22:20:00,54.2,-99.9,20.00,North,350,3.0,3.0,255,0.00,,,0.00,0,Wunderground v.1.15,2013-07-21 05:20:00,
2013-07-20 22:25:00,54.1,-99.9,20.00,North,349,1.0,3.0,255,0.00,,,0.00,0,Wunderground v.1.15,2013-07-21 05:25:00,
2013-07-20 22:35:00,54.3,-99.9,20.00,North,349,0.0,1.0,255,0.00,,,0.00,0,Wunderground v.1.15,2013-07-21 05:35:00,
2013-07-20 22:45:00,53.8,-99.9,20.00,North,349,2.0,3.0,255,0.00,,,0.00,0,Wunderground v.1.15,2013-07-21 05:45:00,
2013-07-20 22:55:00,53.6,-99.9,20.00,North,349,0.0,2.0,255,0.00,,,0.00,0,Wunderground v.1.15,2013-07-21 05:55:00,
2013-07-20 23:00:00,53.4,-99.9,20.00,North,349,0.0,0.0,255,0.00,,,0.00,0,Wunderground v.1.15,2013-07-21 06:00:00,
2013-07-20 23:10:00,52.7,-99.9,20.00,North,349,0.0,0.0,255,0.00,,,0.00,0,Wunderground v.1.15,2013-07-21 06:10:00,
2013-07-20 23:20:00,52.6,-99.9,20.00,North,349,0.0,0.0,255,0.00,,,0.00,0,Wunderground v.1.15,2013-07-21 06:20:00,
2013-07-20 23:30:00,51.5,-99.9,20.00,North,349,0.0,0.0,255,0.00,,,0.00,0,Wunderground v.1.15,2013-07-21 06:30:00,
2013-07-20 23:40:00,51.3,-99.9,20.00,North,349,1.0,1.0,255,0.00,,,0.00,0,Wunderground v.1.15,2013-07-21 06:40:00,
2013-07-20 23:50:00,51.1,-99.9,20.00,North,349,0.0,0.0,255,0.00,,,0.00,0,Wunderground v.1.15,2013-07-21 06:50:00,